Time;durP1;ratioP1;P1;durP2;ratioP2;P2;SDS_P1;SDS_P2;PMS_P1;PMS_P2;Temp;Humidity;BMP_temperature;BMP_pressure;BME280_temperature;BME280_humidity;BME280_pressure;Samples;Min_cycle;Max_cycle;Signal;HPM_P1;HPM_P2
2020/12/15 00:02:15;;;;;;;;;27.75;23.75;;;;;2.72;87.51;101694.00;3725607;37;20820;-57
2020/12/15 00:04:42;;;;;;;;;30.50;27.25;;;;;2.75;87.43;101691.13;3725282;38;20790;-58
2020/12/15 00:07:10;;;;;;;;;30.75;25.50;;;;;2.65;87.70;101671.31;3725721;38;20831;-58
2020/12/15 00:09:42;;;;;;;;;25.25;23.25;;;;;2.67;87.66;101694.31;3725146;38;20798;-58
2020/12/15 00:12:08;;;;;;;;;31.75;27.25;;;;;2.74;87.30;101701.91;3725704;37;20799;-58
2020/12/15 00:14:36;;;;;;;;;29.00;25.50;;;;;2.75;87.40;101700.94;3725613;38;20790;-62
2020/12/15 00:17:03;;;;;;;;;24.25;23.50;;;;;2.78;87.68;101706.09;3725608;37;20819;-57
2020/12/15 00:19:29;;;;;;;;;31.75;26.75;;;;;2.73;87.40;101692.19;3725500;37;20773;-59
2020/12/15 00:21:55;;;;;;;;;26.25;22.75;;;;;2.67;87.17;101685.44;3725667;37;20819;-58
2020/12/15 00:24:22;;;;;;;;;32.00;28.25;;;;;2.77;87.46;101705.22;3725431;38;20779;-58
2020/12/15 00:26:48;;;;;;;;;32.50;28.00;;;;;2.67;87.22;101683.63;3725490;37;20802;-59
2020/12/15 00:29:16;;;;;;;;;23.50;22.75;;;;;2.73;87.67;101700.19;3725438;38;20785;-60
2020/12/15 00:31:44;;;;;;;;;28.25;26.25;;;;;2.77;87.35;101707.91;3725210;37;20783;-59
2020/12/15 00:34:11;;;;;;;;;28.75;24.00;;;;;2.75;87.30;101699.13;3725485;37;20785;-58
2020/12/15 00:36:37;;;;;;;;;33.25;27.25;;;;;2.73;87.54;101694.84;3725260;37;20810;-58
2020/12/15 00:39:04;;;;;;;;;29.00;24.75;;;;;2.71;87.13;101700.31;3725603;37;20781;-57
2020/12/15 00:41:32;;;;;;;;;25.50;21.50;;;;;2.68;87.59;101697.84;3725684;37;20784;-59
2020/12/15 00:43:59;;;;;;;;;25.75;23.50;;;;;2.63;87.40;101692.81;3725149;38;20758;-57
2020/12/15 00:46:26;;;;;;;;;23.25;23.00;;;;;2.67;87.32;101702.31;3725678;37;20759;-59
2020/12/15 00:48:54;;;;;;;;;25.00;21.00;;;;;2.65;87.24;101698.91;3725468;37;20747;-59
2020/12/15 00:51:21;;;;;;;;;27.00;24.50;;;;;2.71;87.47;101707.47;3725325;38;20778;-58
2020/12/15 00:53:48;;;;;;;;;24.75;21.00;;;;;2.72;87.48;101702.00;3725198;37;20757;-57
2020/12/15 00:56:15;;;;;;;;;16.50;16.50;;;;;2.68;87.53;101708.53;3725567;38;20882;-58
2020/12/15 00:58:42;;;;;;;;;28.50;25.00;;;;;2.65;87.31;101706.06;3725085;37;20741;-59
2020/12/15 01:01:11;;;;;;;;;23.50;19.75;;;;;2.68;87.19;101711.19;3724771;38;20747;-57
2020/12/15 01:03:38;;;;;;;;;23.50;21.50;;;;;2.60;87.34;101690.34;3724635;38;20735;-59
2020/12/15 01:06:10;;;;;;;;;34.50;27.25;;;;;2.67;87.28;101705.00;3725302;38;20728;-60
2020/12/15 01:08:37;;;;;;;;;32.50;25.00;;;;;2.53;87.49;101689.06;3725529;37;20764;-58
2020/12/15 01:11:05;;;;;;;;;14.50;5.50;;;;;2.68;87.02;101713.88;3725578;37;20727;-57
2020/12/15 01:13:32;;;;;;;;;34.25;27.75;;;;;2.56;86.98;101702.22;3725279;38;20695;-58
2020/12/15 01:16:04;;;;;;;;;26.50;19.50;;;;;2.65;87.31;101714.09;3725675;37;20740;-58
2020/12/15 01:18:31;;;;;;;;;25.50;22.25;;;;;2.65;87.16;101706.91;3725123;37;20736;-58
2020/12/15 01:20:57;;;;;;;;;24.75;20.75;;;;;2.65;86.99;101706.06;3725568;37;20708;-59
2020/12/15 01:23:24;;;;;;;;;24.25;21.00;;;;;2.67;87.28;101704.13;3725472;37;20724;-58
2020/12/15 01:25:52;;;;;;;;;33.50;27.75;;;;;2.52;86.85;101686.50;3725703;38;20700;-57
2020/12/15 01:28:21;;;;;;;;;28.75;19.75;;;;;2.61;86.97;101705.41;3725508;38;20710;-58
2020/12/15 01:30:47;;;;;;;;;21.50;18.50;;;;;2.62;87.18;101701.78;3725257;37;20708;-58
2020/12/15 01:33:17;;;;;;;;;26.00;24.50;;;;;2.58;87.06;101705.66;3725721;37;20681;-60
2020/12/15 01:35:46;;;;;;;;;26.25;21.50;;;;;2.55;87.08;101689.81;3725600;38;20705;-59
2020/12/15 01:38:12;;;;;;;;;32.25;23.50;;;;;2.67;87.39;101706.81;3725498;37;20683;-57
2020/12/15 01:40:46;;;;;;;;;20.00;16.25;;;;;2.52;87.14;101673.16;3725406;38;20713;-56
2020/12/15 01:43:13;;;;;;;;;26.25;22.50;;;;;2.76;87.34;101698.16;3725251;38;20679;-59
2020/12/15 01:45:39;;;;;;;;;32.50;25.00;;;;;2.75;87.28;101700.94;3725644;38;20696;-59
2020/12/15 01:48:06;;;;;;;;;31.25;25.25;;;;;2.79;87.29;101700.63;3725331;38;20680;-57
2020/12/15 01:50:38;;;;;;;;;28.50;22.50;;;;;2.75;87.00;101704.47;3725110;37;20690;-56
2020/12/15 01:53:14;;;;;;;;;27.00;22.25;;;;;2.74;87.13;101689.41;3725242;38;20673;-58
2020/12/15 01:55:42;;;;;;;;;26.75;23.75;;;;;2.77;87.21;101693.69;3725504;37;20665;-58
2020/12/15 01:58:09;;;;;;;;;34.00;25.00;;;;;2.76;87.01;101691.97;3725187;37;20678;-58
2020/12/15 02:00:37;;;;;;;;;33.25;27.50;;;;;2.69;86.82;101696.03;3725373;38;20670;-59
2020/12/15 02:03:05;;;;;;;;;28.00;24.50;;;;;2.69;86.80;101701.37;3725595;37;20794;-59
2020/12/15 02:05:33;;;;;;;;;31.75;22.25;;;;;2.62;87.12;101696.44;3725257;37;20680;-56
2020/12/15 02:08:01;;;;;;;;;25.25;20.50;;;;;2.64;86.98;101699.00;3725221;38;20655;-56
2020/12/15 02:10:27;;;;;;;;;25.25;23.25;;;;;2.66;87.27;101686.41;3725088;37;20667;-59
2020/12/15 02:12:55;;;;;;;;;38.00;25.25;;;;;2.70;87.34;101695.06;3725504;37;20656;-59
2020/12/15 02:15:23;;;;;;;;;33.75;26.50;;;;;2.62;87.01;101683.06;3725566;38;20676;-59
2020/12/15 02:17:50;;;;;;;;;28.75;27.25;;;;;2.68;87.23;101692.50;3725290;38;20649;-56
2020/12/15 02:20:16;;;;;;;;;20.25;14.00;;;;;2.74;87.18;101693.88;3725484;38;20659;-58
2020/12/15 02:22:47;;;;;;;;;27.75;22.75;;;;;2.75;87.09;101692.94;3725553;37;20645;-60
2020/12/15 02:25:14;;;;;;;;;33.00;26.25;;;;;2.67;87.14;101683.63;3725589;37;20642;-59
2020/12/15 02:27:41;;;;;;;;;24.75;19.75;;;;;2.64;87.13;101691.00;3725459;37;20633;-58
2020/12/15 02:30:09;;;;;;;;;32.25;26.75;;;;;2.67;86.94;101688.09;3725485;37;20625;-60
2020/12/15 02:32:35;;;;;;;;;25.75;22.75;;;;;2.67;87.19;101696.97;3725440;38;20604;-59
2020/12/15 02:35:05;;;;;;;;;34.25;26.25;;;;;2.73;87.36;101686.84;3725614;38;20641;-59
2020/12/15 02:37:34;;;;;;;;;24.50;21.00;;;;;2.72;87.12;101682.44;3725112;38;20595;-57
2020/12/15 02:40:05;;;;;;;;;35.00;27.25;;;;;2.61;87.01;101678.69;3725529;37;20629;-56
2020/12/15 02:42:32;;;;;;;;;35.25;28.00;;;;;2.68;87.16;101679.12;3725520;38;20600;-56
2020/12/15 02:44:59;;;;;;;;;28.00;23.00;;;;;2.71;87.19;101681.59;3725547;37;20601;-57
2020/12/15 02:47:26;;;;;;;;;5.75;5.00;;;;;2.72;86.98;101677.09;3725362;38;20619;-58
2020/12/15 02:49:54;;;;;;;;;22.50;20.50;;;;;2.72;86.68;101685.97;3725572;37;20555;-58
2020/12/15 02:52:21;;;;;;;;;33.75;29.00;;;;;2.66;86.88;101691.75;3725236;37;20609;-59
2020/12/15 02:54:48;;;;;;;;;23.25;21.00;;;;;2.53;86.87;101672.19;3725229;38;20591;-59
2020/12/15 02:57:17;;;;;;;;;25.75;25.00;;;;;2.66;86.94;101683.72;3725542;38;20570;-60
2020/12/15 02:59:45;;;;;;;;;42.50;35.50;;;;;2.61;86.88;101686.72;3725414;37;20605;-58
2020/12/15 03:02:11;;;;;;;;;32.50;26.75;;;;;2.52;87.32;101665.13;3725682;37;20598;-58
2020/12/15 03:04:37;;;;;;;;;26.50;24.50;;;;;2.60;87.26;101689.50;3725545;38;20587;-59
2020/12/15 03:07:06;;;;;;;;;28.00;25.00;;;;;2.59;87.18;101695.81;3725582;37;20586;-60
2020/12/15 03:09:33;;;;;;;;;28.50;26.00;;;;;2.62;87.28;101699.09;3725476;38;20594;-58
2020/12/15 03:12:07;;;;;;;;;30.50;25.00;;;;;2.62;87.28;101703.59;3725180;38;20566;-56
2020/12/15 03:14:35;;;;;;;;;30.00;22.25;;;;;2.40;87.06;101661.47;3725841;38;20577;-60
2020/12/15 03:17:01;;;;;;;;;32.25;26.75;;;;;2.59;87.00;101696.69;3725578;37;20558;-58
2020/12/15 03:19:29;;;;;;;;;37.25;30.00;;;;;2.62;87.04;101701.78;3725581;37;20591;-58
2020/12/15 03:21:57;;;;;;;;;36.00;30.75;;;;;2.60;87.16;101700.22;3725674;38;20544;-57
2020/12/15 03:24:24;;;;;;;;;47.75;32.00;;;;;2.58;87.36;101702.13;3725546;38;20557;-57
2020/12/15 03:26:51;;;;;;;;;26.25;25.00;;;;;2.58;87.17;101699.44;3725230;37;20564;-59
2020/12/15 03:29:23;;;;;;;;;33.75;24.25;;;;;2.60;87.38;101709.03;3725401;38;20564;-60
2020/12/15 03:31:50;;;;;;;;;30.00;28.00;;;;;2.55;87.37;101692.50;3725581;37;20553;-59
2020/12/15 03:34:17;;;;;;;;;30.75;24.25;;;;;2.47;87.21;101688.63;3725529;37;20556;-59
2020/12/15 03:36:45;;;;;;;;;29.50;26.50;;;;;2.58;87.31;101713.66;3725556;38;20535;-58
2020/12/15 03:39:13;;;;;;;;;29.25;25.00;;;;;2.61;87.17;101712.56;3725384;37;20552;-59
2020/12/15 03:41:40;;;;;;;;;22.25;21.50;;;;;2.64;87.31;101713.22;3725090;37;20530;-58
2020/12/15 03:44:06;;;;;;;;;32.75;26.00;;;;;2.69;87.31;101720.94;3725255;38;20531;-59
2020/12/15 03:46:34;;;;;;;;;23.50;16.50;;;;;2.47;87.17;101692.16;3725850;37;20506;-57
2020/12/15 03:49:00;;;;;;;;;30.50;27.00;;;;;2.66;87.14;101715.78;3725633;37;20524;-57
2020/12/15 03:51:27;;;;;;;;;31.25;30.25;;;;;2.60;86.94;101708.22;3725664;37;20519;-57
2020/12/15 03:53:56;;;;;;;;;38.00;31.75;;;;;2.68;87.03;101719.22;3725738;38;20508;-58
2020/12/15 03:56:23;;;;;;;;;31.00;25.25;;;;;2.69;87.05;101720.94;3725774;38;20505;-60
2020/12/15 03:58:50;;;;;;;;;36.50;29.50;;;;;2.65;87.22;101722.97;3725672;37;20502;-59
2020/12/15 04:01:19;;;;;;;;;39.00;35.00;;;;;2.62;87.01;101720.50;3725180;37;20536;-59
2020/12/15 04:03:46;;;;;;;;;31.75;26.25;;;;;2.64;87.09;101721.25;3725691;37;20530;-59
2020/12/15 04:06:15;;;;;;;;;21.00;18.25;;;;;2.67;87.14;101728.19;3725382;38;20493;-59
2020/12/15 04:08:42;;;;;;;;;39.75;33.00;;;;;2.62;87.28;101716.97;3725600;37;20512;-59
2020/12/15 04:11:08;;;;;;;;;33.75;25.50;;;;;2.67;87.31;101729.06;3725619;37;20491;-59
2020/12/15 04:13:35;;;;;;;;;37.25;28.50;;;;;2.64;86.94;101736.41;3725722;37;18046;-57
2020/12/15 04:16:01;;;;;;;;;36.25;28.50;;;;;2.64;86.81;101734.59;3725498;38;20484;-57
2020/12/15 04:18:27;;;;;;;;;35.50;31.75;;;;;2.68;86.99;101737.94;3725414;38;20521;-57
2020/12/15 04:20:54;;;;;;;;;30.75;28.00;;;;;2.64;86.94;101745.28;3725512;37;20472;-59
2020/12/15 04:23:20;;;;;;;;;30.75;27.50;;;;;2.65;86.69;101743.47;3725668;37;20499;-57
2020/12/15 04:26:01;;;;;;;;;29.00;26.25;;;;;2.74;86.86;101748.22;3725621;37;20458;-59
2020/12/15 04:28:27;;;;;;;;;29.75;26.00;;;;;2.73;86.98;101741.16;3725281;37;20535;-58
2020/12/15 04:30:54;;;;;;;;;28.00;23.00;;;;;2.79;86.62;101754.09;3415834;38;72879;-57
2020/12/15 04:33:22;;;;;;;;;30.25;25.25;;;;;2.80;86.60;101754.94;3724802;37;20494;-57
2020/12/15 04:35:49;;;;;;;;;27.75;24.00;;;;;2.80;86.74;101744.25;3725308;38;20471;-59
2020/12/15 04:38:15;;;;;;;;;32.25;29.75;;;;;2.84;86.51;101749.28;3725079;38;20483;-58
2020/12/15 04:40:42;;;;;;;;;30.00;22.00;;;;;2.75;86.72;101741.91;3725135;37;20434;-58
2020/12/15 04:43:10;;;;;;;;;58.50;44.75;;;;;2.72;86.46;101747.44;3725687;38;18030;-61
2020/12/15 04:45:36;;;;;;;;;39.00;30.50;;;;;2.71;86.52;101751.09;3725664;38;20473;-57
2020/12/15 04:48:10;;;;;;;;;37.00;31.25;;;;;2.50;86.40;101723.16;3725618;37;20451;-60
2020/12/15 04:50:38;;;;;;;;;37.25;30.50;;;;;2.80;86.65;101771.00;3725709;37;20429;-58
2020/12/15 04:53:12;;;;;;;;;19.25;13.25;;;;;2.81;86.74;101776.25;3725591;37;20441;-60
2020/12/15 04:55:41;;;;;;;;;28.75;27.25;;;;;2.80;86.74;101785.22;3725547;37;20417;-59
2020/12/15 04:58:19;;;;;;;;;35.00;31.50;;;;;2.69;86.72;101774.38;3725544;37;20437;-60
2020/12/15 05:00:46;;;;;;;;;37.25;29.75;;;;;2.73;86.72;101770.56;3725179;37;20421;-58
2020/12/15 05:03:22;;;;;;;;;25.75;23.00;;;;;2.82;86.49;101794.00;3725421;37;20439;-61
2020/12/15 05:05:54;;;;;;;;;30.75;23.25;;;;;2.75;86.29;101781.16;3725670;38;20411;-64
2020/12/15 05:08:29;;;;;;;;;34.75;28.25;;;;;2.65;86.61;101771.06;3725201;37;20436;-64
2020/12/15 05:10:55;;;;;;;;;30.25;25.50;;;;;2.58;86.24;101758.25;3725848;37;20455;-62
2020/12/15 05:13:24;;;;;;;;;39.25;32.50;;;;;2.77;86.39;101796.13;3725922;37;20401;-63
2020/12/15 05:15:57;;;;;;;;;31.25;28.50;;;;;3.50;87.41;101800.91;3725327;37;20395;-65
2020/12/15 05:18:23;;;;;;;;;29.25;20.50;;;;;3.52;86.62;101807.00;3725572;37;20406;-65
2020/12/15 05:20:50;;;;;;;;;36.00;27.25;;;;;3.54;86.49;101803.25;3725720;37;20418;-63
2020/12/15 05:23:22;;;;;;;;;35.75;29.00;;;;;3.43;85.81;101804.97;3726050;37;20418;-66
2020/12/15 05:25:49;;;;;;;;;29.25;25.75;;;;;3.19;85.43;101804.84;3725360;37;20414;-65
2020/12/15 05:28:17;;;;;;;;;25.50;22.50;;;;;3.12;85.66;101819.63;3725383;38;20401;-65
2020/12/15 05:30:45;;;;;;;;;30.00;27.00;;;;;3.10;85.84;101817.06;3725742;38;20392;-63
2020/12/15 05:33:18;;;;;;;;;24.75;20.75;;;;;2.98;85.72;101823.22;3725719;38;20401;-64
2020/12/15 05:35:49;;;;;;;;;37.25;30.75;;;;;3.13;85.85;101829.34;3725364;38;20399;-64
2020/12/15 05:38:19;;;;;;;;;32.25;26.00;;;;;3.18;86.10;101820.03;3725333;37;20389;-64
2020/12/15 05:40:45;;;;;;;;;32.75;27.75;;;;;3.25;85.34;101837.37;3725328;37;20446;-65
2020/12/15 05:43:13;;;;;;;;;34.00;27.75;;;;;3.36;86.28;101833.13;3725610;37;20392;-64
2020/12/15 05:45:48;;;;;;;;;38.50;33.00;;;;;3.66;85.64;101836.31;3725404;37;20382;-68
2020/12/15 05:48:24;;;;;;;;;21.75;18.00;;;;;3.45;84.26;101843.19;3725925;37;20391;-65
2020/12/15 05:50:57;;;;;;;;;27.50;24.00;;;;;3.28;84.30;101847.88;3725950;38;20370;-66
2020/12/15 05:53:25;;;;;;;;;25.25;24.00;;;;;3.10;84.63;101837.59;3725781;37;20365;-64
2020/12/15 05:55:51;;;;;;;;;39.50;36.00;;;;;3.40;85.60;101856.87;3725265;37;20371;-67
2020/12/15 05:58:19;;;;;;;;;40.25;34.25;;;;;3.51;84.20;101857.00;3725881;38;20462;-64
2020/12/15 06:00:45;;;;;;;;;32.75;26.75;;;;;3.47;84.56;101831.41;3725261;37;20363;-67
2020/12/15 06:03:11;;;;;;;;;30.25;29.75;;;;;3.49;84.10;101868.78;3725659;37;20350;-65
2020/12/15 06:05:40;;;;;;;;;43.00;33.25;;;;;3.45;84.71;101860.09;3725634;38;20351;-65
2020/12/15 06:08:07;;;;;;;;;32.50;27.00;;;;;3.27;84.40;101837.28;3725494;37;20359;-67
2020/12/15 06:10:34;;;;;;;;;38.00;32.00;;;;;3.49;84.55;101863.41;3725690;38;20335;-66
2020/12/15 06:13:01;;;;;;;;;32.75;28.75;;;;;3.56;84.76;101862.91;3725627;37;20365;-66
2020/12/15 06:15:29;;;;;;;;;34.75;29.00;;;;;3.39;84.05;101849.81;3725730;37;20327;-67
2020/12/15 06:17:58;;;;;;;;;31.25;27.50;;;;;3.41;84.35;101860.41;3725631;38;20355;-66
2020/12/15 06:20:33;;;;;;;;;33.50;28.00;;;;;3.52;84.60;101873.91;3725432;37;20343;-63
2020/12/15 06:23:03;;;;;;;;;34.50;27.50;;;;;3.67;84.29;101879.03;3725366;38;20357;-66
2020/12/15 06:25:33;;;;;;;;;36.75;30.50;;;;;3.65;84.18;101875.59;3726614;37;20421;-66
2020/12/15 06:28:06;;;;;;;;;39.75;31.50;;;;;3.66;83.82;101852.38;3725340;38;20318;-64
2020/12/15 06:30:36;;;;;;;;;39.00;33.00;;;;;3.53;83.37;101879.16;3725140;37;20339;-63
2020/12/15 06:33:14;;;;;;;;;40.50;31.50;;;;;3.27;83.50;101874.72;3725064;37;20312;-63
2020/12/15 06:35:44;;;;;;;;;41.75;28.75;;;;;3.24;83.75;101889.16;3727214;37;20338;-63
2020/12/15 06:38:22;;;;;;;;;42.25;32.00;;;;;3.17;84.24;101885.19;3725153;38;20347;-63
2020/12/15 06:40:49;;;;;;;;;39.25;34.25;;;;;3.16;84.53;101885.28;3725365;37;20325;-64
2020/12/15 06:43:29;;;;;;;;;40.00;36.50;;;;;3.09;84.12;101889.38;3725575;37;20314;-64
2020/12/15 06:46:08;;;;;;;;;37.50;34.25;;;;;2.98;84.27;101887.41;3725218;38;20389;-64
2020/12/15 06:48:45;;;;;;;;;42.75;32.00;;;;;3.08;84.72;101898.34;3725589;37;20405;-62
2020/12/15 06:51:12;;;;;;;;;48.75;37.00;;;;;3.07;84.91;101896.66;3725642;37;20381;-63
2020/12/15 06:53:39;;;;;;;;;43.75;31.25;;;;;3.04;84.99;101899.53;3725582;37;20387;-61
2020/12/15 06:56:09;;;;;;;;;39.25;33.00;;;;;3.13;84.96;101901.56;3725591;38;20381;-61
2020/12/15 06:58:36;;;;;;;;;46.50;36.00;;;;;3.17;84.86;101917.28;3725513;37;20378;-60
2020/12/15 07:01:03;;;;;;;;;41.25;35.50;;;;;3.14;84.84;101913.97;3724842;38;20352;-60
2020/12/15 07:03:39;;;;;;;;;50.25;38.50;;;;;3.13;84.99;101921.13;3725177;37;20381;-62
2020/12/15 07:06:26;;;;;;;;;41.50;28.25;;;;;3.11;84.74;101917.75;3725230;37;20404;-61
2020/12/15 07:09:29;;;;;;;;;45.25;36.00;;;;;3.14;84.88;101924.66;3725122;38;20364;-61
2020/12/15 07:11:56;;;;;;;;;40.50;37.00;;;;;3.13;84.99;101917.59;3725082;37;20377;-61
2020/12/15 07:14:23;;;;;;;;;48.00;40.00;;;;;3.10;85.15;101917.84;3725189;37;20367;-62
2020/12/15 07:16:55;;;;;;;;;39.25;37.50;;;;;3.15;85.24;101921.87;3725141;37;20382;-62
2020/12/15 07:19:23;;;;;;;;;44.75;31.50;;;;;3.20;85.09;101922.44;3725840;37;20333;-60
2020/12/15 07:21:51;;;;;;;;;47.50;37.00;;;;;3.28;84.93;101930.81;3725791;38;20357;-61
2020/12/15 07:24:17;;;;;;;;;41.75;35.00;;;;;3.28;85.05;101920.12;3725196;38;20342;-61
2020/12/15 07:26:45;;;;;;;;;46.75;38.50;;;;;3.15;84.91;101889.78;3725947;38;20361;-62
2020/12/15 07:29:18;;;;;;;;;47.75;38.25;;;;;3.32;85.00;101918.94;3725310;37;20382;-60
2020/12/15 07:31:45;;;;;;;;;56.25;42.50;;;;;3.34;84.86;101916.16;3725307;37;20344;-61
2020/12/15 07:34:19;;;;;;;;;37.75;32.25;;;;;3.24;84.47;101920.41;3725556;38;20358;-61
2020/12/15 07:36:48;;;;;;;;;45.25;37.25;;;;;3.21;84.78;101921.47;3725184;37;20328;-60
2020/12/15 07:39:16;;;;;;;;;42.25;36.75;;;;;3.29;84.71;101913.81;3725557;38;20296;-61
2020/12/15 07:42:04;;;;;;;;;53.75;40.00;;;;;3.45;84.88;101918.13;3725649;38;20297;-60
2020/12/15 07:44:32;;;;;;;;;48.50;41.00;;;;;3.47;84.53;101921.53;3725533;37;20313;-62
2020/12/15 07:47:00;;;;;;;;;44.50;37.25;;;;;3.46;84.75;101915.34;3725581;37;20353;-63
2020/12/15 07:49:29;;;;;;;;;40.00;30.75;;;;;3.42;84.42;101912.97;3725727;38;20342;-62
2020/12/15 07:51:55;;;;;;;;;41.00;30.50;;;;;3.36;83.99;101913.38;3725177;37;20343;-62
2020/12/15 07:54:22;;;;;;;;;40.50;34.00;;;;;3.34;84.24;101918.84;3725591;38;20290;-62
2020/12/15 07:56:50;;;;;;;;;45.50;35.50;;;;;3.33;84.28;101904.59;3725589;37;20300;-62
2020/12/15 07:59:18;;;;;;;;;36.00;32.00;;;;;3.43;84.35;101909.34;3725673;37;20294;-61
2020/12/15 08:01:46;;;;;;;;;40.75;29.50;;;;;3.58;84.29;101932.38;3725764;37;20308;-62
2020/12/15 08:04:14;;;;;;;;;47.00;38.25;;;;;3.61;84.22;101935.72;3725784;37;20306;-62
2020/12/15 08:06:44;;;;;;;;;38.50;30.75;;;;;3.67;84.42;101934.41;3725591;38;20311;-62
2020/12/15 08:09:15;;;;;;;;;40.50;35.25;;;;;3.68;84.22;101933.44;3725511;37;20284;-62
2020/12/15 08:11:51;;;;;;;;;51.50;40.00;;;;;3.68;84.03;101925.41;3725713;37;20296;-64
2020/12/15 08:14:19;;;;;;;;;28.50;28.50;;;;;3.84;83.88;101944.81;3725302;38;20284;-62
2020/12/15 08:16:47;;;;;;;;;36.00;30.50;;;;;3.72;83.45;101940.28;3725400;37;20270;-63
2020/12/15 08:19:16;;;;;;;;;44.75;38.00;;;;;3.74;83.27;101945.53;3725806;38;20261;-63
2020/12/15 08:21:46;;;;;;;;;37.75;30.50;;;;;3.74;83.38;101945.53;3725293;37;20313;-61
2020/12/15 08:24:16;;;;;;;;;50.75;39.50;;;;;3.78;83.47;101944.38;3725753;37;20268;-62
2020/12/15 08:26:45;;;;;;;;;43.00;36.75;;;;;3.84;83.53;101933.25;3725295;37;20258;-62
2020/12/15 08:29:13;;;;;;;;;41.00;35.75;;;;;3.95;83.57;101938.72;3725296;37;20252;-63
2020/12/15 08:31:42;;;;;;;;;39.25;30.25;;;;;3.83;82.63;101944.91;3725722;38;20239;-63
2020/12/15 08:34:17;;;;;;;;;45.25;39.00;;;;;3.76;82.98;101947.16;3725613;37;20240;-62
2020/12/15 08:36:46;;;;;;;;;42.75;37.75;;;;;3.84;82.74;101949.31;3725856;37;20266;-63
2020/12/15 08:39:14;;;;;;;;;37.50;32.75;;;;;3.82;82.94;101935.16;3725820;38;20240;-62
2020/12/15 08:41:54;;;;;;;;;31.00;30.25;;;;;3.78;82.64;101920.28;3726078;37;20225;-63
2020/12/15 08:44:22;;;;;;;;;30.75;26.50;;;;;3.96;82.51;101941.28;3722380;37;20252;-63
2020/12/15 08:46:56;;;;;;;;;37.00;34.50;;;;;3.78;82.16;101934.53;3722850;37;20277;-62
2020/12/15 08:49:26;;;;;;;;;38.25;31.50;;;;;3.80;82.18;101929.91;3725751;38;20199;-62
2020/12/15 08:51:54;;;;;;;;;35.00;25.25;;;;;4.02;82.18;101944.50;3725747;38;20225;-63
2020/12/15 08:54:21;;;;;;;;;37.50;32.75;;;;;4.05;81.80;101937.09;3725740;38;20222;-63
2020/12/15 08:56:50;;;;;;;;;34.75;29.25;;;;;4.04;81.66;101929.19;3725607;37;20226;-63
2020/12/15 08:59:25;;;;;;;;;39.50;36.00;;;;;4.10;81.71;101934.97;3725241;37;20197;-63
2020/12/15 09:01:59;;;;;;;;;40.00;32.75;;;;;4.13;81.60;101934.75;3725367;38;20199;-63
2020/12/15 09:04:27;;;;;;;;;42.75;35.75;;;;;4.13;81.08;101941.94;3725252;37;20184;-63
2020/12/15 09:06:54;;;;;;;;;52.75;42.00;;;;;4.10;81.28;101934.09;3725717;37;20204;-63
2020/12/15 09:09:32;;;;;;;;;38.25;35.00;;;;;4.19;81.48;101928.94;3725845;37;20242;-64
2020/12/15 09:12:01;;;;;;;;;44.75;37.75;;;;;4.21;81.11;101926.13;3725159;38;20191;-63
2020/12/15 09:14:28;;;;;;;;;34.75;32.00;;;;;4.30;81.23;101928.16;3725382;38;20191;-64
2020/12/15 09:16:55;;;;;;;;;41.50;36.25;;;;;4.32;80.61;101926.22;3725520;38;20179;-64
2020/12/15 09:19:27;;;;;;;;;19.75;17.25;;;;;4.30;80.92;101920.97;3725323;37;20493;-64
2020/12/15 09:21:59;;;;;;;;;36.25;31.50;;;;;4.27;80.73;101909.62;3725542;38;20188;-63
2020/12/15 09:24:27;;;;;;;;;27.50;23.25;;;;;4.36;80.50;101924.19;3725638;38;20172;-64
2020/12/15 09:26:55;;;;;;;;;39.00;31.75;;;;;4.33;81.01;101918.09;3725322;38;20172;-63
2020/12/15 09:29:22;;;;;;;;;29.50;27.25;;;;;4.24;80.38;101913.38;3725724;37;20205;-62
2020/12/15 09:31:56;;;;;;;;;35.25;30.25;;;;;4.38;80.40;101920.44;3725891;37;20155;-63
2020/12/15 09:34:22;;;;;;;;;33.00;27.50;;;;;4.52;80.05;101911.41;3725902;38;20138;-64
2020/12/15 09:36:56;;;;;;;;;33.75;31.75;;;;;4.51;80.38;101909.69;3725931;37;20156;-63
2020/12/15 09:39:24;;;;;;;;;33.50;27.50;;;;;4.61;80.36;101918.78;3725884;38;20140;-63
2020/12/15 09:41:52;;;;;;;;;34.50;32.00;;;;;4.58;79.72;101909.13;3724805;37;20155;-63
2020/12/15 09:44:18;;;;;;;;;36.75;32.00;;;;;4.60;79.33;101909.88;3725766;38;20148;-62
2020/12/15 09:46:45;;;;;;;;;43.50;36.50;;;;;4.70;79.35;101920.75;3725709;37;20154;-64
2020/12/15 09:49:11;;;;;;;;;34.00;31.00;;;;;4.69;79.47;101910.16;3725704;37;20153;-62
2020/12/15 09:51:42;;;;;;;;;39.50;29.00;;;;;4.65;79.03;101905.03;3725976;38;20147;-63
2020/12/15 09:54:12;;;;;;;;;33.25;30.50;;;;;4.80;79.22;101915.56;3725802;37;20155;-63
2020/12/15 09:56:42;;;;;;;;;37.25;31.50;;;;;4.69;78.69;101889.53;3726287;37;20147;-64
2020/12/15 09:59:09;;;;;;;;;38.75;32.25;;;;;4.80;78.59;101924.47;3726049;38;20054;-64
2020/12/15 10:01:38;;;;;;;;;35.50;30.50;;;;;4.71;78.60;101913.56;3727061;37;20037;-63
2020/12/15 10:04:10;;;;;;;;;35.50;30.50;;;;;4.71;78.35;101917.09;3726415;37;20035;-62
2020/12/15 10:06:38;;;;;;;;;37.00;32.00;;;;;4.73;78.56;101914.31;3725876;37;20050;-63
2020/12/15 10:09:05;;;;;;;;;33.50;28.75;;;;;4.63;78.48;101915.00;3725255;38;20037;-63
2020/12/15 10:11:31;;;;;;;;;45.00;37.25;;;;;4.69;78.74;101900.28;3725726;37;21016;-63
2020/12/15 10:14:02;;;;;;;;;32.75;25.50;;;;;4.82;78.47;101908.28;3725687;38;21028;-63
2020/12/15 10:16:29;;;;;;;;;28.50;25.50;;;;;4.84;77.98;101898.28;3725282;37;20038;-62
2020/12/15 10:18:56;;;;;;;;;38.00;36.25;;;;;4.77;77.96;101867.53;3725686;38;20022;-63
2020/12/15 10:21:25;;;;;;;;;27.25;26.25;;;;;4.94;77.68;101892.13;3725382;38;21026;-63
2020/12/15 10:23:52;;;;;;;;;35.00;32.25;;;;;4.92;77.91;101880.66;3724761;38;20992;-63
2020/12/15 10:26:27;;;;;;;;;30.50;27.25;;;;;4.90;77.24;101897.84;3725557;37;21029;-63
2020/12/15 10:29:02;;;;;;;;;34.00;29.25;;;;;4.92;77.53;101894.06;3725188;38;20988;-62
2020/12/15 10:31:29;;;;;;;;;31.25;24.75;;;;;4.94;77.81;101889.44;3725508;37;21004;-63
2020/12/15 10:33:56;;;;;;;;;28.50;25.75;;;;;5.09;77.79;101891.94;3725783;38;21005;-62
2020/12/15 10:36:22;;;;;;;;;34.25;33.00;;;;;5.03;77.15;101881.69;3725620;38;20991;-63
2020/12/15 10:38:48;;;;;;;;;38.50;31.00;;;;;5.12;77.44;101889.03;3725962;38;20986;-64
2020/12/15 10:41:14;;;;;;;;;28.25;27.00;;;;;5.08;76.99;101890.25;3725763;37;21011;-63
2020/12/15 10:43:41;;;;;;;;;31.00;28.50;;;;;5.08;77.11;101888.41;3725995;37;20981;-64
2020/12/15 10:46:08;;;;;;;;;34.50;27.50;;;;;4.92;77.32;101880.66;3725921;37;21001;-63
2020/12/15 10:48:36;;;;;;;;;35.00;29.00;;;;;5.07;77.42;101886.69;3724813;37;20985;-64
2020/12/15 10:51:03;;;;;;;;;29.50;25.50;;;;;4.96;77.11;101884.81;3725458;38;20997;-64
2020/12/15 10:53:30;;;;;;;;;27.25;22.25;;;;;5.01;77.75;101883.63;3725413;37;20952;-62
2020/12/15 10:55:56;;;;;;;;;32.50;31.25;;;;;4.86;77.29;101877.56;3725540;37;20976;-63
2020/12/15 10:58:23;;;;;;;;;27.25;26.50;;;;;4.78;77.35;101856.69;3725437;38;21039;-63
2020/12/15 11:00:50;;;;;;;;;45.75;35.25;;;;;4.97;77.44;101888.34;3725424;38;20948;-63
2020/12/15 11:03:17;;;;;;;;;28.75;24.50;;;;;4.93;77.74;101887.72;3725174;37;20962;-62
2020/12/15 11:05:49;;;;;;;;;20.25;14.75;;;;;4.97;77.44;101885.69;3725179;37;20969;-64
2020/12/15 11:08:16;;;;;;;;;32.75;28.50;;;;;5.01;77.52;101880.94;3725822;37;20913;-64
2020/12/15 11:10:42;;;;;;;;;35.00;28.50;;;;;4.98;77.43;101884.72;3724655;37;20941;-63
2020/12/15 11:13:08;;;;;;;;;39.50;32.00;;;;;5.11;77.74;101879.28;3725328;38;20948;-63
2020/12/15 11:15:36;;;;;;;;;35.50;31.00;;;;;5.10;77.49;101869.50;3725598;37;20955;-66
2020/12/15 11:18:05;;;;;;;;;35.75;30.75;;;;;5.11;77.50;101873.91;3725353;37;20948;-63
2020/12/15 11:20:33;;;;;;;;;39.50;32.25;;;;;5.02;77.80;101878.13;3725335;38;20943;-64
2020/12/15 11:23:01;;;;;;;;;28.50;21.25;;;;;5.08;77.51;101869.62;3725684;37;20933;-63
2020/12/15 11:25:27;;;;;;;;;27.75;24.00;;;;;5.01;77.31;101856.78;3725040;37;20931;-64